sensor_id;sensor_type;location;lat;lon;timestamp;temperature;humidity
23475;DHT22;11910;52.086;21.066;2022-10-16T00:02:21;15.00;93.70
23475;DHT22;11910;52.086;21.066;2022-10-16T00:04:47;15.00;93.70
23475;DHT22;11910;52.086;21.066;2022-10-16T00:07:12;14.90;93.70
23475;DHT22;11910;52.086;21.066;2022-10-16T00:09:38;14.90;93.80
23475;DHT22;11910;52.086;21.066;2022-10-16T00:12:03;14.90;93.80
23475;DHT22;11910;52.086;21.066;2022-10-16T00:14:31;14.90;93.80
23475;DHT22;11910;52.086;21.066;2022-10-16T00:16:57;14.90;94.20
23475;DHT22;11910;52.086;21.066;2022-10-16T00:19:23;14.90;93.90
23475;DHT22;11910;52.086;21.066;2022-10-16T00:21:48;14.90;94.00
23475;DHT22;11910;52.086;21.066;2022-10-16T00:24:14;14.90;93.90
23475;DHT22;11910;52.086;21.066;2022-10-16T00:26:40;14.90;94.70
23475;DHT22;11910;52.086;21.066;2022-10-16T00:29:07;14.90;94.60
23475;DHT22;11910;52.086;21.066;2022-10-16T00:31:34;14.90;94.20
23475;DHT22;11910;52.086;21.066;2022-10-16T00:33:59;14.90;94.20
23475;DHT22;11910;52.086;21.066;2022-10-16T00:36:26;14.90;94.20
23475;DHT22;11910;52.086;21.066;2022-10-16T00:38:55;14.80;94.10
23475;DHT22;11910;52.086;21.066;2022-10-16T00:41:24;14.80;94.50
23475;DHT22;11910;52.086;21.066;2022-10-16T00:43:55;14.80;94.50
23475;DHT22;11910;52.086;21.066;2022-10-16T00:46:31;14.80;94.30
23475;DHT22;11910;52.086;21.066;2022-10-16T00:49:05;14.80;94.50
23475;DHT22;11910;52.086;21.066;2022-10-16T00:51:40;14.80;95.20
23475;DHT22;11910;52.086;21.066;2022-10-16T00:54:21;14.80;94.70
23475;DHT22;11910;52.086;21.066;2022-10-16T00:56:49;14.80;94.50
23475;DHT22;11910;52.086;21.066;2022-10-16T00:59:41;14.80;94.80
23475;DHT22;11910;52.086;21.066;2022-10-16T01:02:08;14.80;95.40
23475;DHT22;11910;52.086;21.066;2022-10-16T01:04:48;14.70;95.90
23475;DHT22;11910;52.086;21.066;2022-10-16T01:07:32;14.70;96.60
23475;DHT22;11910;52.086;21.066;2022-10-16T01:12:44;14.70;96.30
23475;DHT22;11910;52.086;21.066;2022-10-16T01:15:40;14.60;96.20
23475;DHT22;11910;52.086;21.066;2022-10-16T01:21:10;14.60;97.30
23475;DHT22;11910;52.086;21.066;2022-10-16T01:32:26;14.50;96.10
23475;DHT22;11910;52.086;21.066;2022-10-16T01:37:48;14.50;97.40
23475;DHT22;11910;52.086;21.066;2022-10-16T01:40:18;14.50;96.30
23475;DHT22;11910;52.086;21.066;2022-10-16T01:42:50;14.50;96.60
23475;DHT22;11910;52.086;21.066;2022-10-16T01:45:19;14.50;97.00
23475;DHT22;11910;52.086;21.066;2022-10-16T01:47:47;14.50;97.10
23475;DHT22;11910;52.086;21.066;2022-10-16T01:50:15;14.50;96.60
23475;DHT22;11910;52.086;21.066;2022-10-16T01:52:44;14.40;96.90
23475;DHT22;11910;52.086;21.066;2022-10-16T01:55:15;14.50;96.60
23475;DHT22;11910;52.086;21.066;2022-10-16T01:57:45;14.50;96.90
23475;DHT22;11910;52.086;21.066;2022-10-16T02:00:13;14.50;96.90
23475;DHT22;11910;52.086;21.066;2022-10-16T02:02:43;14.40;97.10
23475;DHT22;11910;52.086;21.066;2022-10-16T02:05:18;14.40;97.10
23475;DHT22;11910;52.086;21.066;2022-10-16T02:07:47;14.40;97.20
23475;DHT22;11910;52.086;21.066;2022-10-16T02:10:13;14.40;97.20
23475;DHT22;11910;52.086;21.066;2022-10-16T02:12:42;14.40;97.60
23475;DHT22;11910;52.086;21.066;2022-10-16T02:15:10;14.40;97.80
23475;DHT22;11910;52.086;21.066;2022-10-16T02:17:36;14.40;98.10
23475;DHT22;11910;52.086;21.066;2022-10-16T02:20:03;14.40;98.30
23475;DHT22;11910;52.086;21.066;2022-10-16T02:22:42;14.40;98.50
23475;DHT22;11910;52.086;21.066;2022-10-16T02:25:32;14.30;98.60
23475;DHT22;11910;52.086;21.066;2022-10-16T02:28:17;14.40;98.80
23475;DHT22;11910;52.086;21.066;2022-10-16T02:30:48;14.40;98.60
23475;DHT22;11910;52.086;21.066;2022-10-16T02:33:17;14.30;98.80
23475;DHT22;11910;52.086;21.066;2022-10-16T02:35:46;14.30;99.00
23475;DHT22;11910;52.086;21.066;2022-10-16T02:38:14;14.30;99.10
23475;DHT22;11910;52.086;21.066;2022-10-16T02:40:40;14.30;99.20
23475;DHT22;11910;52.086;21.066;2022-10-16T02:43:06;14.20;99.00
23475;DHT22;11910;52.086;21.066;2022-10-16T02:45:33;14.20;98.50
23475;DHT22;11910;52.086;21.066;2022-10-16T02:47:58;14.20;98.90
23475;DHT22;11910;52.086;21.066;2022-10-16T02:50:24;14.20;99.00
23475;DHT22;11910;52.086;21.066;2022-10-16T02:52:50;14.20;99.30
23475;DHT22;11910;52.086;21.066;2022-10-16T02:55:16;14.20;99.40
23475;DHT22;11910;52.086;21.066;2022-10-16T02:57:41;14.20;99.50
23475;DHT22;11910;52.086;21.066;2022-10-16T03:00:11;14.30;99.50
23475;DHT22;11910;52.086;21.066;2022-10-16T03:02:37;14.30;99.60
23475;DHT22;11910;52.086;21.066;2022-10-16T03:05:03;14.20;99.50
23475;DHT22;11910;52.086;21.066;2022-10-16T03:07:29;14.20;99.40
23475;DHT22;11910;52.086;21.066;2022-10-16T03:09:55;14.30;98.90
23475;DHT22;11910;52.086;21.066;2022-10-16T03:12:21;14.30;98.90
23475;DHT22;11910;52.086;21.066;2022-10-16T03:14:47;14.30;98.70
23475;DHT22;11910;52.086;21.066;2022-10-16T03:17:13;14.30;97.90
23475;DHT22;11910;52.086;21.066;2022-10-16T03:19:39;14.30;98.10
23475;DHT22;11910;52.086;21.066;2022-10-16T03:22:04;14.30;98.30
23475;DHT22;11910;52.086;21.066;2022-10-16T03:24:30;14.20;98.70
23475;DHT22;11910;52.086;21.066;2022-10-16T03:26:55;14.20;98.30
23475;DHT22;11910;52.086;21.066;2022-10-16T03:29:21;14.20;97.80
23475;DHT22;11910;52.086;21.066;2022-10-16T03:31:47;14.20;97.80
23475;DHT22;11910;52.086;21.066;2022-10-16T03:34:15;14.10;98.20
23475;DHT22;11910;52.086;21.066;2022-10-16T03:36:40;14.20;97.80
23475;DHT22;11910;52.086;21.066;2022-10-16T03:39:06;14.20;98.00
23475;DHT22;11910;52.086;21.066;2022-10-16T03:41:31;14.20;98.30
23475;DHT22;11910;52.086;21.066;2022-10-16T03:43:57;14.20;97.50
23475;DHT22;11910;52.086;21.066;2022-10-16T03:46:22;14.10;97.60
23475;DHT22;11910;52.086;21.066;2022-10-16T03:48:48;14.20;97.40
23475;DHT22;11910;52.086;21.066;2022-10-16T03:51:14;14.20;97.00
23475;DHT22;11910;52.086;21.066;2022-10-16T03:53:39;14.20;97.30
23475;DHT22;11910;52.086;21.066;2022-10-16T03:56:05;14.20;97.20
23475;DHT22;11910;52.086;21.066;2022-10-16T03:58:31;14.20;96.70
23475;DHT22;11910;52.086;21.066;2022-10-16T04:00:56;14.20;96.70
23475;DHT22;11910;52.086;21.066;2022-10-16T04:03:22;14.20;97.00
23475;DHT22;11910;52.086;21.066;2022-10-16T04:05:48;14.20;96.50
23475;DHT22;11910;52.086;21.066;2022-10-16T04:08:14;14.20;96.50
23475;DHT22;11910;52.086;21.066;2022-10-16T04:10:42;14.20;97.10
23475;DHT22;11910;52.086;21.066;2022-10-16T04:13:09;14.20;96.60
23475;DHT22;11910;52.086;21.066;2022-10-16T04:15:34;14.20;96.50
23475;DHT22;11910;52.086;21.066;2022-10-16T04:18:00;14.10;96.60
23475;DHT22;11910;52.086;21.066;2022-10-16T04:20:26;14.10;97.00
23475;DHT22;11910;52.086;21.066;2022-10-16T04:22:52;14.00;96.70
23475;DHT22;11910;52.086;21.066;2022-10-16T04:25:17;13.90;96.80
23475;DHT22;11910;52.086;21.066;2022-10-16T04:27:43;13.90;96.60
23475;DHT22;11910;52.086;21.066;2022-10-16T04:30:09;13.80;96.80
23475;DHT22;11910;52.086;21.066;2022-10-16T04:32:34;13.80;97.00
23475;DHT22;11910;52.086;21.066;2022-10-16T04:35:00;13.70;96.90
23475;DHT22;11910;52.086;21.066;2022-10-16T04:37:26;13.70;97.10
23475;DHT22;11910;52.086;21.066;2022-10-16T04:39:53;13.60;97.10
23475;DHT22;11910;52.086;21.066;2022-10-16T04:42:19;13.60;97.30
23475;DHT22;11910;52.086;21.066;2022-10-16T04:44:44;13.60;97.40
23475;DHT22;11910;52.086;21.066;2022-10-16T04:47:10;13.50;97.00
23475;DHT22;11910;52.086;21.066;2022-10-16T04:49:36;13.40;97.30
23475;DHT22;11910;52.086;21.066;2022-10-16T04:52:01;13.40;97.30
23475;DHT22;11910;52.086;21.066;2022-10-16T04:54:27;13.40;97.30
23475;DHT22;11910;52.086;21.066;2022-10-16T04:56:52;13.40;97.30
23475;DHT22;11910;52.086;21.066;2022-10-16T04:59:19;13.40;97.20
23475;DHT22;11910;52.086;21.066;2022-10-16T05:01:45;13.30;97.10
23475;DHT22;11910;52.086;21.066;2022-10-16T05:04:11;13.30;97.30
23475;DHT22;11910;52.086;21.066;2022-10-16T05:06:38;13.20;97.00
23475;DHT22;11910;52.086;21.066;2022-10-16T05:09:05;13.20;97.00
23475;DHT22;11910;52.086;21.066;2022-10-16T05:11:31;13.10;96.80
23475;DHT22;11910;52.086;21.066;2022-10-16T05:13:56;13.10;96.60
23475;DHT22;11910;52.086;21.066;2022-10-16T05:16:22;13.10;97.20
23475;DHT22;11910;52.086;21.066;2022-10-16T05:18:48;13.10;97.60
23475;DHT22;11910;52.086;21.066;2022-10-16T05:21:13;13.10;97.60
23475;DHT22;11910;52.086;21.066;2022-10-16T05:23:39;13.10;97.50
23475;DHT22;11910;52.086;21.066;2022-10-16T05:26:04;13.10;97.60
23475;DHT22;11910;52.086;21.066;2022-10-16T05:28:30;13.20;97.60
23475;DHT22;11910;52.086;21.066;2022-10-16T05:30:57;13.20;97.50
23475;DHT22;11910;52.086;21.066;2022-10-16T05:33:24;13.20;97.40
23475;DHT22;11910;52.086;21.066;2022-10-16T05:35:51;13.20;97.40
23475;DHT22;11910;52.086;21.066;2022-10-16T05:38:17;13.20;97.60
23475;DHT22;11910;52.086;21.066;2022-10-16T05:40:43;13.30;97.40
23475;DHT22;11910;52.086;21.066;2022-10-16T05:43:15;13.30;97.40
23475;DHT22;11910;52.086;21.066;2022-10-16T05:45:41;13.20;97.50
23475;DHT22;11910;52.086;21.066;2022-10-16T05:48:06;13.20;97.50
23475;DHT22;11910;52.086;21.066;2022-10-16T05:50:32;13.20;97.50
23475;DHT22;11910;52.086;21.066;2022-10-16T05:52:58;13.20;97.50
23475;DHT22;11910;52.086;21.066;2022-10-16T05:55:23;13.20;97.50
23475;DHT22;11910;52.086;21.066;2022-10-16T05:57:49;13.20;97.50
23475;DHT22;11910;52.086;21.066;2022-10-16T06:00:14;13.20;97.60
23475;DHT22;11910;52.086;21.066;2022-10-16T06:02:40;13.30;97.70
23475;DHT22;11910;52.086;21.066;2022-10-16T06:05:06;13.30;97.60
23475;DHT22;11910;52.086;21.066;2022-10-16T06:07:34;13.40;97.80
23475;DHT22;11910;52.086;21.066;2022-10-16T06:10:01;13.40;97.80
23475;DHT22;11910;52.086;21.066;2022-10-16T06:12:27;13.40;97.70
23475;DHT22;11910;52.086;21.066;2022-10-16T06:14:52;13.50;97.60
23475;DHT22;11910;52.086;21.066;2022-10-16T06:17:18;13.60;97.50
23475;DHT22;11910;52.086;21.066;2022-10-16T06:19:44;13.60;97.50
23475;DHT22;11910;52.086;21.066;2022-10-16T06:22:09;13.70;97.40
23475;DHT22;11910;52.086;21.066;2022-10-16T06:24:35;13.70;97.00
23475;DHT22;11910;52.086;21.066;2022-10-16T06:27:01;13.80;96.90
23475;DHT22;11910;52.086;21.066;2022-10-16T06:29:28;13.80;96.90
23475;DHT22;11910;52.086;21.066;2022-10-16T06:31:53;13.90;96.90
23475;DHT22;11910;52.086;21.066;2022-10-16T06:34:19;13.90;96.90
23475;DHT22;11910;52.086;21.066;2022-10-16T06:36:44;14.00;96.60
23475;DHT22;11910;52.086;21.066;2022-10-16T06:39:10;14.00;96.60
23475;DHT22;11910;52.086;21.066;2022-10-16T06:41:36;14.00;96.60
23475;DHT22;11910;52.086;21.066;2022-10-16T06:44:05;14.10;96.70
23475;DHT22;11910;52.086;21.066;2022-10-16T06:46:31;14.30;96.70
23475;DHT22;11910;52.086;21.066;2022-10-16T06:48:57;14.30;96.50
23475;DHT22;11910;52.086;21.066;2022-10-16T06:51:24;14.40;96.20
23475;DHT22;11910;52.086;21.066;2022-10-16T06:53:55;14.50;96.10
23475;DHT22;11910;52.086;21.066;2022-10-16T06:56:24;14.50;96.20
23475;DHT22;11910;52.086;21.066;2022-10-16T06:58:50;14.60;95.90
23475;DHT22;11910;52.086;21.066;2022-10-16T07:01:18;14.60;96.00
23475;DHT22;11910;52.086;21.066;2022-10-16T07:03:45;14.70;95.90
23475;DHT22;11910;52.086;21.066;2022-10-16T07:06:17;14.80;95.80
23475;DHT22;11910;52.086;21.066;2022-10-16T07:08:45;14.90;95.70
23475;DHT22;11910;52.086;21.066;2022-10-16T07:11:17;15.00;95.50
23475;DHT22;11910;52.086;21.066;2022-10-16T07:13:43;15.00;95.40
23475;DHT22;11910;52.086;21.066;2022-10-16T07:16:12;15.10;95.30
23475;DHT22;11910;52.086;21.066;2022-10-16T07:18:38;15.10;95.20
23475;DHT22;11910;52.086;21.066;2022-10-16T07:21:10;15.20;95.30
23475;DHT22;11910;52.086;21.066;2022-10-16T07:23:36;15.20;95.20
23475;DHT22;11910;52.086;21.066;2022-10-16T07:26:02;15.20;95.10
23475;DHT22;11910;52.086;21.066;2022-10-16T07:28:28;15.20;95.20
23475;DHT22;11910;52.086;21.066;2022-10-16T07:30:54;15.20;95.20
23475;DHT22;11910;52.086;21.066;2022-10-16T07:33:20;15.20;95.10
23475;DHT22;11910;52.086;21.066;2022-10-16T07:35:53;15.20;95.00
23475;DHT22;11910;52.086;21.066;2022-10-16T07:38:21;15.30;95.20
23475;DHT22;11910;52.086;21.066;2022-10-16T07:40:47;15.30;95.20
23475;DHT22;11910;52.086;21.066;2022-10-16T07:43:14;15.20;95.20
23475;DHT22;11910;52.086;21.066;2022-10-16T07:45:47;15.20;95.20
23475;DHT22;11910;52.086;21.066;2022-10-16T07:48:14;15.30;95.30
23475;DHT22;11910;52.086;21.066;2022-10-16T07:50:40;15.30;95.10
23475;DHT22;11910;52.086;21.066;2022-10-16T07:53:06;15.40;95.20
23475;DHT22;11910;52.086;21.066;2022-10-16T07:55:32;15.70;94.50
23475;DHT22;11910;52.086;21.066;2022-10-16T07:57:57;15.90;94.30
23475;DHT22;11910;52.086;21.066;2022-10-16T08:00:23;15.90;94.10
23475;DHT22;11910;52.086;21.066;2022-10-16T08:02:48;15.90;94.50
23475;DHT22;11910;52.086;21.066;2022-10-16T08:05:14;16.10;94.30
23475;DHT22;11910;52.086;21.066;2022-10-16T08:07:39;16.10;94.00
23475;DHT22;11910;52.086;21.066;2022-10-16T08:10:05;16.20;93.90
23475;DHT22;11910;52.086;21.066;2022-10-16T08:12:44;16.30;94.10
23475;DHT22;11910;52.086;21.066;2022-10-16T08:15:12;16.30;94.00
23475;DHT22;11910;52.086;21.066;2022-10-16T08:17:43;16.30;93.70
23475;DHT22;11910;52.086;21.066;2022-10-16T08:20:10;16.40;93.70
23475;DHT22;11910;52.086;21.066;2022-10-16T08:22:38;16.50;93.50
23475;DHT22;11910;52.086;21.066;2022-10-16T08:25:04;16.70;93.70
23475;DHT22;11910;52.086;21.066;2022-10-16T08:27:36;16.80;93.60
23475;DHT22;11910;52.086;21.066;2022-10-16T08:30:08;16.90;93.30
23475;DHT22;11910;52.086;21.066;2022-10-16T08:32:37;16.90;93.20
23475;DHT22;11910;52.086;21.066;2022-10-16T08:35:16;17.00;93.00
23475;DHT22;11910;52.086;21.066;2022-10-16T08:37:49;17.10;92.80
23475;DHT22;11910;52.086;21.066;2022-10-16T08:40:26;17.20;92.90
23475;DHT22;11910;52.086;21.066;2022-10-16T08:45:58;17.40;92.40
23475;DHT22;11910;52.086;21.066;2022-10-16T08:51:04;17.40;92.40
23475;DHT22;11910;52.086;21.066;2022-10-16T08:53:48;17.50;92.30
23475;DHT22;11910;52.086;21.066;2022-10-16T08:56:20;17.50;92.30
23475;DHT22;11910;52.086;21.066;2022-10-16T08:58:46;17.60;92.40
23475;DHT22;11910;52.086;21.066;2022-10-16T09:01:15;17.60;92.20
23475;DHT22;11910;52.086;21.066;2022-10-16T09:09:53;17.70;92.40
23475;DHT22;11910;52.086;21.066;2022-10-16T09:12:45;17.80;92.60
23475;DHT22;11910;52.086;21.066;2022-10-16T09:20:51;18.00;92.20
23475;DHT22;11910;52.086;21.066;2022-10-16T09:23:21;18.10;92.00
23475;DHT22;11910;52.086;21.066;2022-10-16T09:25:49;18.10;92.10
23475;DHT22;11910;52.086;21.066;2022-10-16T09:28:16;18.10;92.40
23475;DHT22;11910;52.086;21.066;2022-10-16T09:30:43;18.20;92.30
23475;DHT22;11910;52.086;21.066;2022-10-16T09:33:10;18.20;92.20
23475;DHT22;11910;52.086;21.066;2022-10-16T09:35:39;18.20;92.20
23475;DHT22;11910;52.086;21.066;2022-10-16T09:38:06;18.20;91.80
23475;DHT22;11910;52.086;21.066;2022-10-16T09:40:37;18.30;92.40
23475;DHT22;11910;52.086;21.066;2022-10-16T09:45:32;18.50;91.60
23475;DHT22;11910;52.086;21.066;2022-10-16T09:48:00;18.70;91.50
23475;DHT22;11910;52.086;21.066;2022-10-16T09:50:28;18.90;91.10
23475;DHT22;11910;52.086;21.066;2022-10-16T09:53:04;19.10;91.00
23475;DHT22;11910;52.086;21.066;2022-10-16T09:55:30;19.30;90.30
23475;DHT22;11910;52.086;21.066;2022-10-16T09:57:58;19.50;90.40
23475;DHT22;11910;52.086;21.066;2022-10-16T10:00:24;19.70;90.20
23475;DHT22;11910;52.086;21.066;2022-10-16T10:02:54;19.80;90.00
23475;DHT22;11910;52.086;21.066;2022-10-16T10:05:25;19.90;90.00
23475;DHT22;11910;52.086;21.066;2022-10-16T10:08:17;20.00;89.30
23475;DHT22;11910;52.086;21.066;2022-10-16T10:10:50;20.10;88.80
23475;DHT22;11910;52.086;21.066;2022-10-16T10:13:28;20.20;88.40
23475;DHT22;11910;52.086;21.066;2022-10-16T10:15:57;20.40;87.90
23475;DHT22;11910;52.086;21.066;2022-10-16T10:18:29;20.90;86.60
23475;DHT22;11910;52.086;21.066;2022-10-16T10:20:59;21.30;85.10
23475;DHT22;11910;52.086;21.066;2022-10-16T10:23:29;21.70;83.70
23475;DHT22;11910;52.086;21.066;2022-10-16T10:28:59;21.90;81.90
23475;DHT22;11910;52.086;21.066;2022-10-16T10:37:07;22.40;79.50
23475;DHT22;11910;52.086;21.066;2022-10-16T10:39:48;22.70;80.30
23475;DHT22;11910;52.086;21.066;2022-10-16T10:42:27;22.60;79.40
23475;DHT22;11910;52.086;21.066;2022-10-16T10:45:11;22.70;79.10
23475;DHT22;11910;52.086;21.066;2022-10-16T10:53:25;23.00;77.90
23475;DHT22;11910;52.086;21.066;2022-10-16T11:03:58;22.40;78.80
23475;DHT22;11910;52.086;21.066;2022-10-16T11:06:40;22.30;79.90
23475;DHT22;11910;52.086;21.066;2022-10-16T11:11:45;22.30;81.40
23475;DHT22;11910;52.086;21.066;2022-10-16T11:14:54;22.30;80.10
23475;DHT22;11910;52.086;21.066;2022-10-16T11:22:50;22.20;80.40
23475;DHT22;11910;52.086;21.066;2022-10-16T11:25:30;22.00;80.10
23475;DHT22;11910;52.086;21.066;2022-10-16T11:28:20;22.00;80.80
23475;DHT22;11910;52.086;21.066;2022-10-16T11:31:03;21.90;79.80
23475;DHT22;11910;52.086;21.066;2022-10-16T11:39:30;21.70;80.60
23475;DHT22;11910;52.086;21.066;2022-10-16T11:48:24;21.50;80.60
23475;DHT22;11910;52.086;21.066;2022-10-16T11:51:00;21.60;81.50
23475;DHT22;11910;52.086;21.066;2022-10-16T11:56:13;21.70;81.50
23475;DHT22;11910;52.086;21.066;2022-10-16T12:01:53;22.00;81.70
23475;DHT22;11910;52.086;21.066;2022-10-16T12:07:11;22.40;79.50
23475;DHT22;11910;52.086;21.066;2022-10-16T12:09:41;22.80;78.00
23475;DHT22;11910;52.086;21.066;2022-10-16T12:15:03;23.30;77.50
23475;DHT22;11910;52.086;21.066;2022-10-16T12:17:42;23.30;76.00
23475;DHT22;11910;52.086;21.066;2022-10-16T12:22:41;23.50;75.70
23475;DHT22;11910;52.086;21.066;2022-10-16T12:25:35;23.60;74.60
23475;DHT22;11910;52.086;21.066;2022-10-16T12:28:20;23.50;74.90
23475;DHT22;11910;52.086;21.066;2022-10-16T12:31:12;23.60;74.90
23475;DHT22;11910;52.086;21.066;2022-10-16T12:33:43;23.40;75.90
23475;DHT22;11910;52.086;21.066;2022-10-16T12:36:28;23.20;75.60
23475;DHT22;11910;52.086;21.066;2022-10-16T12:38:54;23.00;76.20
23475;DHT22;11910;52.086;21.066;2022-10-16T12:41:32;23.20;76.30
23475;DHT22;11910;52.086;21.066;2022-10-16T12:43:58;23.30;76.00
23475;DHT22;11910;52.086;21.066;2022-10-16T12:46:46;23.00;75.90
23475;DHT22;11910;52.086;21.066;2022-10-16T12:51:38;22.80;77.20
23475;DHT22;11910;52.086;21.066;2022-10-16T13:01:52;22.30;78.60
23475;DHT22;11910;52.086;21.066;2022-10-16T13:04:47;22.60;78.20
23475;DHT22;11910;52.086;21.066;2022-10-16T13:21:35;22.00;80.60
23475;DHT22;11910;52.086;21.066;2022-10-16T13:24:14;21.90;80.50
23475;DHT22;11910;52.086;21.066;2022-10-16T13:26:55;21.70;81.70
23475;DHT22;11910;52.086;21.066;2022-10-16T13:29:22;21.60;83.10
23475;DHT22;11910;52.086;21.066;2022-10-16T13:31:48;21.50;83.50
23475;DHT22;11910;52.086;21.066;2022-10-16T13:34:20;21.40;83.10
23475;DHT22;11910;52.086;21.066;2022-10-16T13:36:51;21.30;83.40
23475;DHT22;11910;52.086;21.066;2022-10-16T13:39:30;21.20;84.60
23475;DHT22;11910;52.086;21.066;2022-10-16T13:44:33;21.00;84.40
23475;DHT22;11910;52.086;21.066;2022-10-16T13:47:01;20.90;84.50
23475;DHT22;11910;52.086;21.066;2022-10-16T13:49:27;20.80;84.60
23475;DHT22;11910;52.086;21.066;2022-10-16T13:51:57;20.70;84.70
23475;DHT22;11910;52.086;21.066;2022-10-16T13:54:24;20.60;85.50
23475;DHT22;11910;52.086;21.066;2022-10-16T13:56:51;20.50;85.60
23475;DHT22;11910;52.086;21.066;2022-10-16T13:59:43;20.50;86.10
23475;DHT22;11910;52.086;21.066;2022-10-16T14:02:37;20.40;86.50
23475;DHT22;11910;52.086;21.066;2022-10-16T14:05:08;20.30;87.20
23475;DHT22;11910;52.086;21.066;2022-10-16T14:07:36;20.30;87.70
23475;DHT22;11910;52.086;21.066;2022-10-16T14:10:18;20.20;87.70
23475;DHT22;11910;52.086;21.066;2022-10-16T14:12:44;20.10;87.70
23475;DHT22;11910;52.086;21.066;2022-10-16T14:15:17;20.10;88.80
23475;DHT22;11910;52.086;21.066;2022-10-16T14:17:46;20.10;88.70
23475;DHT22;11910;52.086;21.066;2022-10-16T14:20:14;20.00;88.70
23475;DHT22;11910;52.086;21.066;2022-10-16T14:22:43;20.00;89.10
23475;DHT22;11910;52.086;21.066;2022-10-16T14:27:44;19.90;89.10
23475;DHT22;11910;52.086;21.066;2022-10-16T14:30:21;19.80;89.30
23475;DHT22;11910;52.086;21.066;2022-10-16T14:32:59;19.80;89.60
23475;DHT22;11910;52.086;21.066;2022-10-16T14:35:31;19.70;90.10
23475;DHT22;11910;52.086;21.066;2022-10-16T14:37:58;19.70;90.00
23475;DHT22;11910;52.086;21.066;2022-10-16T14:40:27;19.60;90.00
23475;DHT22;11910;52.086;21.066;2022-10-16T14:42:53;19.60;90.10
23475;DHT22;11910;52.086;21.066;2022-10-16T14:45:21;19.60;90.20
23475;DHT22;11910;52.086;21.066;2022-10-16T14:47:52;19.50;90.50
23475;DHT22;11910;52.086;21.066;2022-10-16T14:50:19;19.50;90.50
23475;DHT22;11910;52.086;21.066;2022-10-16T14:52:44;19.50;91.00
23475;DHT22;11910;52.086;21.066;2022-10-16T14:55:10;19.50;91.10
23475;DHT22;11910;52.086;21.066;2022-10-16T14:57:38;19.40;90.80
23475;DHT22;11910;52.086;21.066;2022-10-16T15:00:14;19.40;90.80
23475;DHT22;11910;52.086;21.066;2022-10-16T15:02:42;19.40;91.30
23475;DHT22;11910;52.086;21.066;2022-10-16T15:07:45;19.30;91.10
23475;DHT22;11910;52.086;21.066;2022-10-16T15:10:15;19.30;91.30
23475;DHT22;11910;52.086;21.066;2022-10-16T15:12:41;19.20;91.10
23475;DHT22;11910;52.086;21.066;2022-10-16T15:17:41;19.10;91.60
23475;DHT22;11910;52.086;21.066;2022-10-16T15:20:07;19.10;92.00
23475;DHT22;11910;52.086;21.066;2022-10-16T15:22:32;19.00;91.90
23475;DHT22;11910;52.086;21.066;2022-10-16T15:24:58;19.00;91.80
23475;DHT22;11910;52.086;21.066;2022-10-16T15:27:23;18.90;92.70
23475;DHT22;11910;52.086;21.066;2022-10-16T15:29:49;18.90;92.90
23475;DHT22;11910;52.086;21.066;2022-10-16T15:32:15;18.80;93.40
23475;DHT22;11910;52.086;21.066;2022-10-16T15:34:40;18.80;94.30
23475;DHT22;11910;52.086;21.066;2022-10-16T15:37:06;18.70;93.50
23475;DHT22;11910;52.086;21.066;2022-10-16T15:39:31;18.70;93.60
23475;DHT22;11910;52.086;21.066;2022-10-16T15:41:57;18.60;94.20
23475;DHT22;11910;52.086;21.066;2022-10-16T15:44:23;18.60;93.60
23475;DHT22;11910;52.086;21.066;2022-10-16T15:46:50;18.60;94.20
23475;DHT22;11910;52.086;21.066;2022-10-16T15:49:19;18.50;94.20
23475;DHT22;11910;52.086;21.066;2022-10-16T15:51:45;18.50;94.60
23475;DHT22;11910;52.086;21.066;2022-10-16T15:54:11;18.40;94.80
23475;DHT22;11910;52.086;21.066;2022-10-16T15:56:37;18.40;95.00
23475;DHT22;11910;52.086;21.066;2022-10-16T15:59:04;18.30;95.30
23475;DHT22;11910;52.086;21.066;2022-10-16T16:01:34;18.30;95.40
23475;DHT22;11910;52.086;21.066;2022-10-16T16:04:00;18.20;95.60
23475;DHT22;11910;52.086;21.066;2022-10-16T16:06:26;18.20;95.50
23475;DHT22;11910;52.086;21.066;2022-10-16T16:08:52;18.10;95.70
23475;DHT22;11910;52.086;21.066;2022-10-16T16:11:20;18.10;95.80
23475;DHT22;11910;52.086;21.066;2022-10-16T16:13:46;18.10;95.90
23475;DHT22;11910;52.086;21.066;2022-10-16T16:16:14;18.00;95.90
23475;DHT22;11910;52.086;21.066;2022-10-16T16:18:40;18.00;96.00
23475;DHT22;11910;52.086;21.066;2022-10-16T16:21:06;18.00;96.00
23475;DHT22;11910;52.086;21.066;2022-10-16T16:23:32;17.90;96.30
23475;DHT22;11910;52.086;21.066;2022-10-16T16:26:11;17.90;96.30
23475;DHT22;11910;52.086;21.066;2022-10-16T16:28:38;17.90;96.30
23475;DHT22;11910;52.086;21.066;2022-10-16T16:31:04;17.90;96.20
23475;DHT22;11910;52.086;21.066;2022-10-16T16:33:30;17.90;96.50
23475;DHT22;11910;52.086;21.066;2022-10-16T16:36:01;17.80;96.30
23475;DHT22;11910;52.086;21.066;2022-10-16T16:38:28;17.80;96.60
23475;DHT22;11910;52.086;21.066;2022-10-16T16:40:54;17.70;96.60
23475;DHT22;11910;52.086;21.066;2022-10-16T16:43:23;17.70;96.60
23475;DHT22;11910;52.086;21.066;2022-10-16T16:45:48;17.60;96.80
23475;DHT22;11910;52.086;21.066;2022-10-16T16:48:14;17.50;96.70
23475;DHT22;11910;52.086;21.066;2022-10-16T16:50:39;17.50;96.80
23475;DHT22;11910;52.086;21.066;2022-10-16T16:53:05;17.50;96.80
23475;DHT22;11910;52.086;21.066;2022-10-16T16:55:32;17.40;96.80
23475;DHT22;11910;52.086;21.066;2022-10-16T16:57:58;17.40;97.10
23475;DHT22;11910;52.086;21.066;2022-10-16T17:00:24;17.30;96.50
23475;DHT22;11910;52.086;21.066;2022-10-16T17:02:50;17.30;96.40
23475;DHT22;11910;52.086;21.066;2022-10-16T17:05:16;17.20;96.30
23475;DHT22;11910;52.086;21.066;2022-10-16T17:07:42;17.10;96.40
23475;DHT22;11910;52.086;21.066;2022-10-16T17:10:08;17.00;96.50
23475;DHT22;11910;52.086;21.066;2022-10-16T17:12:34;17.00;96.40
23475;DHT22;11910;52.086;21.066;2022-10-16T17:14:59;16.90;96.70
23475;DHT22;11910;52.086;21.066;2022-10-16T17:17:25;16.90;96.90
23475;DHT22;11910;52.086;21.066;2022-10-16T17:19:51;16.80;96.80
23475;DHT22;11910;52.086;21.066;2022-10-16T17:22:17;16.70;95.70
23475;DHT22;11910;52.086;21.066;2022-10-16T17:24:43;16.60;95.60
23475;DHT22;11910;52.086;21.066;2022-10-16T17:27:09;16.50;95.80
23475;DHT22;11910;52.086;21.066;2022-10-16T17:29:39;16.50;96.40
23475;DHT22;11910;52.086;21.066;2022-10-16T17:32:25;16.40;96.20
23475;DHT22;11910;52.086;21.066;2022-10-16T17:34:51;16.40;95.70
23475;DHT22;11910;52.086;21.066;2022-10-16T17:37:25;16.30;95.90